sensor_id;sensor_type;location;lat;lon;timestamp;temperature;humidity
41395;DHT22;27136;53.810;8.886;2022-08-11T00:01:52;19.60;99.90
41395;DHT22;27136;53.810;8.886;2022-08-11T00:04:21;19.60;99.90
41395;DHT22;27136;53.810;8.886;2022-08-11T00:06:48;19.50;99.90
41395;DHT22;27136;53.810;8.886;2022-08-11T00:09:18;19.60;99.90
41395;DHT22;27136;53.810;8.886;2022-08-11T00:11:51;19.50;99.90
41395;DHT22;27136;53.810;8.886;2022-08-11T00:14:23;19.50;99.90
41395;DHT22;27136;53.810;8.886;2022-08-11T00:17:08;19.40;99.90
41395;DHT22;27136;53.810;8.886;2022-08-11T00:19:47;19.40;99.90
41395;DHT22;27136;53.810;8.886;2022-08-11T00:22:20;19.40;99.90
41395;DHT22;27136;53.810;8.886;2022-08-11T00:24:46;19.40;99.90
41395;DHT22;27136;53.810;8.886;2022-08-11T00:27:12;19.30;99.90
41395;DHT22;27136;53.810;8.886;2022-08-11T00:29:38;19.30;99.90
41395;DHT22;27136;53.810;8.886;2022-08-11T00:32:05;19.30;99.90
41395;DHT22;27136;53.810;8.886;2022-08-11T00:34:35;19.30;99.90
41395;DHT22;27136;53.810;8.886;2022-08-11T00:37:10;19.20;99.90
41395;DHT22;27136;53.810;8.886;2022-08-11T00:39:44;19.20;99.90
41395;DHT22;27136;53.810;8.886;2022-08-11T00:45:08;19.10;99.90
41395;DHT22;27136;53.810;8.886;2022-08-11T00:48:24;19.10;99.90
41395;DHT22;27136;53.810;8.886;2022-08-11T00:53:43;19.00;99.90
41395;DHT22;27136;53.810;8.886;2022-08-11T00:56:15;19.00;99.90
41395;DHT22;27136;53.810;8.886;2022-08-11T01:01:57;18.80;99.90
41395;DHT22;27136;53.810;8.886;2022-08-11T01:04:54;18.80;99.90
41395;DHT22;27136;53.810;8.886;2022-08-11T01:23:03;18.70;99.90
41395;DHT22;27136;53.810;8.886;2022-08-11T01:28:45;18.60;99.90
41395;DHT22;27136;53.810;8.886;2022-08-11T01:37:52;18.60;99.90
41395;DHT22;27136;53.810;8.886;2022-08-11T01:43:41;18.40;99.90
41395;DHT22;27136;53.810;8.886;2022-08-11T01:46:42;18.40;99.90
41395;DHT22;27136;53.810;8.886;2022-08-11T01:49:16;18.30;99.90
41395;DHT22;27136;53.810;8.886;2022-08-11T01:54:27;18.30;99.90
41395;DHT22;27136;53.810;8.886;2022-08-11T01:59:36;18.30;99.90
41395;DHT22;27136;53.810;8.886;2022-08-11T02:04:55;18.20;99.90
41395;DHT22;27136;53.810;8.886;2022-08-11T02:07:39;18.20;99.90
41395;DHT22;27136;53.810;8.886;2022-08-11T02:10:30;18.10;99.90
41395;DHT22;27136;53.810;8.886;2022-08-11T02:13:31;18.10;99.90
41395;DHT22;27136;53.810;8.886;2022-08-11T02:18:51;18.10;99.90
41395;DHT22;27136;53.810;8.886;2022-08-11T02:21:48;18.00;99.90
41395;DHT22;27136;53.810;8.886;2022-08-11T02:24:39;18.00;99.90
41395;DHT22;27136;53.810;8.886;2022-08-11T02:27:20;18.00;99.90
41395;DHT22;27136;53.810;8.886;2022-08-11T02:30:06;17.90;99.90
41395;DHT22;27136;53.810;8.886;2022-08-11T02:32:46;17.90;99.90
41395;DHT22;27136;53.810;8.886;2022-08-11T02:35:50;17.90;99.90
41395;DHT22;27136;53.810;8.886;2022-08-11T02:38:28;17.80;99.90
41395;DHT22;27136;53.810;8.886;2022-08-11T02:41:11;17.80;99.90
41395;DHT22;27136;53.810;8.886;2022-08-11T02:44:08;17.80;99.90
41395;DHT22;27136;53.810;8.886;2022-08-11T02:46:48;17.70;99.90
41395;DHT22;27136;53.810;8.886;2022-08-11T02:49:35;17.80;99.90
41395;DHT22;27136;53.810;8.886;2022-08-11T02:57:58;17.60;99.90
41395;DHT22;27136;53.810;8.886;2022-08-11T03:00:29;17.60;99.90
41395;DHT22;27136;53.810;8.886;2022-08-11T03:03:22;17.60;99.90
41395;DHT22;27136;53.810;8.886;2022-08-11T03:06:18;17.60;99.90
41395;DHT22;27136;53.810;8.886;2022-08-11T03:08:53;17.60;99.90
41395;DHT22;27136;53.810;8.886;2022-08-11T03:17:53;17.50;99.90
41395;DHT22;27136;53.810;8.886;2022-08-11T03:28:41;17.50;99.90
41395;DHT22;27136;53.810;8.886;2022-08-11T03:31:19;17.40;99.90
41395;DHT22;27136;53.810;8.886;2022-08-11T03:34:05;17.40;99.90
41395;DHT22;27136;53.810;8.886;2022-08-11T03:44:36;17.40;99.90
41395;DHT22;27136;53.810;8.886;2022-08-11T03:47:29;17.40;99.90
41395;DHT22;27136;53.810;8.886;2022-08-11T04:07:55;17.20;99.90
41395;DHT22;27136;53.810;8.886;2022-08-11T04:10:55;17.20;99.90
41395;DHT22;27136;53.810;8.886;2022-08-11T04:16:46;17.10;99.90
41395;DHT22;27136;53.810;8.886;2022-08-11T04:19:28;17.20;99.90
41395;DHT22;27136;53.810;8.886;2022-08-11T04:22:24;17.10;99.90
41395;DHT22;27136;53.810;8.886;2022-08-11T04:25:09;17.10;99.90
41395;DHT22;27136;53.810;8.886;2022-08-11T04:33:52;17.00;99.90
41395;DHT22;27136;53.810;8.886;2022-08-11T04:36:52;17.00;99.90
41395;DHT22;27136;53.810;8.886;2022-08-11T04:40:11;17.00;99.90
41395;DHT22;27136;53.810;8.886;2022-08-11T04:55:35;17.10;99.90
41395;DHT22;27136;53.810;8.886;2022-08-11T05:01:49;17.10;99.90
41395;DHT22;27136;53.810;8.886;2022-08-11T05:07:44;17.10;99.90
41395;DHT22;27136;53.810;8.886;2022-08-11T05:10:19;17.10;99.90
41395;DHT22;27136;53.810;8.886;2022-08-11T05:12:55;17.20;99.90
41395;DHT22;27136;53.810;8.886;2022-08-11T05:15:48;17.20;99.90
41395;DHT22;27136;53.810;8.886;2022-08-11T05:18:35;17.20;99.90
41395;DHT22;27136;53.810;8.886;2022-08-11T05:21:22;17.20;99.90
41395;DHT22;27136;53.810;8.886;2022-08-11T05:27:14;17.30;99.90
41395;DHT22;27136;53.810;8.886;2022-08-11T05:30:04;17.30;99.90
41395;DHT22;27136;53.810;8.886;2022-08-11T05:32:59;17.40;99.90
41395;DHT22;27136;53.810;8.886;2022-08-11T05:35:47;17.40;99.90
41395;DHT22;27136;53.810;8.886;2022-08-11T05:38:23;17.50;99.90
41395;DHT22;27136;53.810;8.886;2022-08-11T05:41:11;17.50;99.90
41395;DHT22;27136;53.810;8.886;2022-08-11T05:43:58;17.50;99.90
41395;DHT22;27136;53.810;8.886;2022-08-11T05:46:43;17.60;99.90
41395;DHT22;27136;53.810;8.886;2022-08-11T05:49:32;17.60;99.90
41395;DHT22;27136;53.810;8.886;2022-08-11T05:52:24;17.60;99.90
41395;DHT22;27136;53.810;8.886;2022-08-11T05:55:10;17.70;99.90
41395;DHT22;27136;53.810;8.886;2022-08-11T05:58:05;17.70;99.90
41395;DHT22;27136;53.810;8.886;2022-08-11T06:00:40;17.70;99.90
41395;DHT22;27136;53.810;8.886;2022-08-11T06:03:07;17.70;99.90
41395;DHT22;27136;53.810;8.886;2022-08-11T06:05:36;17.80;99.90
41395;DHT22;27136;53.810;8.886;2022-08-11T06:08:04;17.80;99.90
41395;DHT22;27136;53.810;8.886;2022-08-11T06:10:33;17.90;99.90
41395;DHT22;27136;53.810;8.886;2022-08-11T06:13:00;17.90;99.90
41395;DHT22;27136;53.810;8.886;2022-08-11T06:15:26;18.00;99.90
41395;DHT22;27136;53.810;8.886;2022-08-11T06:17:54;18.00;99.90
41395;DHT22;27136;53.810;8.886;2022-08-11T06:20:20;18.10;99.90
41395;DHT22;27136;53.810;8.886;2022-08-11T06:22:54;18.10;99.90
41395;DHT22;27136;53.810;8.886;2022-08-11T06:25:21;18.10;99.90
41395;DHT22;27136;53.810;8.886;2022-08-11T06:27:54;18.20;99.90
41395;DHT22;27136;53.810;8.886;2022-08-11T06:30:43;18.20;99.90
41395;DHT22;27136;53.810;8.886;2022-08-11T06:38:39;18.30;99.90
41395;DHT22;27136;53.810;8.886;2022-08-11T06:41:18;18.40;99.90
41395;DHT22;27136;53.810;8.886;2022-08-11T06:46:42;18.50;99.90
41395;DHT22;27136;53.810;8.886;2022-08-11T06:49:13;18.60;99.90
41395;DHT22;27136;53.810;8.886;2022-08-11T06:52:01;18.60;99.90
41395;DHT22;27136;53.810;8.886;2022-08-11T06:54:35;18.70;99.90
41395;DHT22;27136;53.810;8.886;2022-08-11T06:57:04;18.80;99.90
41395;DHT22;27136;53.810;8.886;2022-08-11T06:59:49;18.80;99.90
41395;DHT22;27136;53.810;8.886;2022-08-11T07:02:44;18.90;99.90
41395;DHT22;27136;53.810;8.886;2022-08-11T07:14:06;19.10;99.90
41395;DHT22;27136;53.810;8.886;2022-08-11T07:16:52;19.20;99.90
41395;DHT22;27136;53.810;8.886;2022-08-11T07:19:24;19.30;99.90
41395;DHT22;27136;53.810;8.886;2022-08-11T07:22:10;19.40;99.90
41395;DHT22;27136;53.810;8.886;2022-08-11T07:24:58;19.40;99.90
41395;DHT22;27136;53.810;8.886;2022-08-11T07:27:46;19.50;99.90
41395;DHT22;27136;53.810;8.886;2022-08-11T07:30:34;19.60;99.90
41395;DHT22;27136;53.810;8.886;2022-08-11T07:33:02;19.70;99.90
41395;DHT22;27136;53.810;8.886;2022-08-11T07:35:34;19.70;99.90
41395;DHT22;27136;53.810;8.886;2022-08-11T07:38:06;19.80;99.90
41395;DHT22;27136;53.810;8.886;2022-08-11T07:40:33;19.80;99.90
41395;DHT22;27136;53.810;8.886;2022-08-11T07:42:59;19.90;99.90
41395;DHT22;27136;53.810;8.886;2022-08-11T07:45:26;19.90;99.90
41395;DHT22;27136;53.810;8.886;2022-08-11T07:48:12;20.00;99.90
41395;DHT22;27136;53.810;8.886;2022-08-11T07:50:58;20.10;99.90
41395;DHT22;27136;53.810;8.886;2022-08-11T07:53:42;20.20;99.90
41395;DHT22;27136;53.810;8.886;2022-08-11T07:56:08;20.20;99.90
41395;DHT22;27136;53.810;8.886;2022-08-11T07:58:35;20.40;99.90
41395;DHT22;27136;53.810;8.886;2022-08-11T08:01:24;20.40;99.90
41395;DHT22;27136;53.810;8.886;2022-08-11T08:04:11;20.40;99.90
41395;DHT22;27136;53.810;8.886;2022-08-11T08:06:56;20.50;99.90
41395;DHT22;27136;53.810;8.886;2022-08-11T08:09:41;20.60;99.90
41395;DHT22;27136;53.810;8.886;2022-08-11T08:12:27;20.70;99.90
41395;DHT22;27136;53.810;8.886;2022-08-11T08:15:14;20.80;99.90
41395;DHT22;27136;53.810;8.886;2022-08-11T08:18:00;20.90;99.90
41395;DHT22;27136;53.810;8.886;2022-08-11T08:20:39;21.00;99.90
41395;DHT22;27136;53.810;8.886;2022-08-11T08:23:08;21.00;99.90
41395;DHT22;27136;53.810;8.886;2022-08-11T08:25:40;21.10;99.90
41395;DHT22;27136;53.810;8.886;2022-08-11T08:28:09;21.20;99.90
41395;DHT22;27136;53.810;8.886;2022-08-11T08:30:36;21.20;99.90
41395;DHT22;27136;53.810;8.886;2022-08-11T08:33:27;21.30;99.90
41395;DHT22;27136;53.810;8.886;2022-08-11T08:36:02;21.40;99.90
41395;DHT22;27136;53.810;8.886;2022-08-11T08:38:50;21.50;99.90
41395;DHT22;27136;53.810;8.886;2022-08-11T08:41:31;21.50;99.90
41395;DHT22;27136;53.810;8.886;2022-08-11T08:44:07;21.60;99.90
41395;DHT22;27136;53.810;8.886;2022-08-11T08:46:36;21.70;99.90
41395;DHT22;27136;53.810;8.886;2022-08-11T08:49:04;21.70;99.90
41395;DHT22;27136;53.810;8.886;2022-08-11T08:51:34;21.80;99.90
41395;DHT22;27136;53.810;8.886;2022-08-11T08:54:10;21.80;99.90
41395;DHT22;27136;53.810;8.886;2022-08-11T08:56:39;21.90;99.90
41395;DHT22;27136;53.810;8.886;2022-08-11T08:59:05;22.00;99.90
41395;DHT22;27136;53.810;8.886;2022-08-11T09:01:37;22.00;99.90
41395;DHT22;27136;53.810;8.886;2022-08-11T09:04:08;22.10;99.90
41395;DHT22;27136;53.810;8.886;2022-08-11T09:06:36;22.20;99.90
41395;DHT22;27136;53.810;8.886;2022-08-11T09:09:08;22.30;99.90
41395;DHT22;27136;53.810;8.886;2022-08-11T09:11:35;22.30;99.90
41395;DHT22;27136;53.810;8.886;2022-08-11T09:14:37;22.50;99.90
41395;DHT22;27136;53.810;8.886;2022-08-11T09:17:23;22.60;99.90
41395;DHT22;27136;53.810;8.886;2022-08-11T09:19:56;22.70;99.90
41395;DHT22;27136;53.810;8.886;2022-08-11T09:22:30;22.80;99.90
41395;DHT22;27136;53.810;8.886;2022-08-11T09:25:15;22.90;99.90
41395;DHT22;27136;53.810;8.886;2022-08-11T09:28:00;22.90;99.90
41395;DHT22;27136;53.810;8.886;2022-08-11T09:30:28;23.00;99.90
41395;DHT22;27136;53.810;8.886;2022-08-11T09:32:56;23.10;99.90
41395;DHT22;27136;53.810;8.886;2022-08-11T09:35:26;23.20;99.90
41395;DHT22;27136;53.810;8.886;2022-08-11T09:37:54;23.30;99.90
41395;DHT22;27136;53.810;8.886;2022-08-11T09:40:39;23.30;99.90
41395;DHT22;27136;53.810;8.886;2022-08-11T09:43:09;23.40;99.90
41395;DHT22;27136;53.810;8.886;2022-08-11T09:45:55;23.40;99.90
41395;DHT22;27136;53.810;8.886;2022-08-11T09:48:26;23.50;99.90
41395;DHT22;27136;53.810;8.886;2022-08-11T09:50:55;23.60;99.90
41395;DHT22;27136;53.810;8.886;2022-08-11T09:53:24;23.70;99.90
41395;DHT22;27136;53.810;8.886;2022-08-11T09:55:51;23.70;99.90
41395;DHT22;27136;53.810;8.886;2022-08-11T09:58:17;23.80;99.90
41395;DHT22;27136;53.810;8.886;2022-08-11T10:00:46;23.90;99.90
41395;DHT22;27136;53.810;8.886;2022-08-11T10:03:20;24.00;99.90
41395;DHT22;27136;53.810;8.886;2022-08-11T10:05:54;24.00;99.90
41395;DHT22;27136;53.810;8.886;2022-08-11T10:08:40;24.10;99.90
41395;DHT22;27136;53.810;8.886;2022-08-11T10:11:11;24.20;99.90
41395;DHT22;27136;53.810;8.886;2022-08-11T10:13:41;24.20;99.90
41395;DHT22;27136;53.810;8.886;2022-08-11T10:16:29;24.40;99.90
41395;DHT22;27136;53.810;8.886;2022-08-11T10:18:58;24.50;99.90
41395;DHT22;27136;53.810;8.886;2022-08-11T10:21:39;24.60;99.90
41395;DHT22;27136;53.810;8.886;2022-08-11T10:24:06;24.70;99.90
41395;DHT22;27136;53.810;8.886;2022-08-11T10:26:52;24.70;99.90
41395;DHT22;27136;53.810;8.886;2022-08-11T10:29:36;24.80;99.90
41395;DHT22;27136;53.810;8.886;2022-08-11T10:32:26;24.80;99.90
41395;DHT22;27136;53.810;8.886;2022-08-11T10:35:11;24.80;99.90
41395;DHT22;27136;53.810;8.886;2022-08-11T10:37:40;24.90;99.90
41395;DHT22;27136;53.810;8.886;2022-08-11T10:40:07;24.90;99.90
41395;DHT22;27136;53.810;8.886;2022-08-11T10:42:34;25.00;99.90
41395;DHT22;27136;53.810;8.886;2022-08-11T10:45:19;25.10;99.90
41395;DHT22;27136;53.810;8.886;2022-08-11T10:48:05;25.10;99.90
41395;DHT22;27136;53.810;8.886;2022-08-11T10:50:32;25.20;99.90
41395;DHT22;27136;53.810;8.886;2022-08-11T10:53:17;25.10;99.90
41395;DHT22;27136;53.810;8.886;2022-08-11T10:56:04;25.10;99.90
41395;DHT22;27136;53.810;8.886;2022-08-11T10:58:50;25.20;99.90
41395;DHT22;27136;53.810;8.886;2022-08-11T11:03:55;25.30;99.90
41395;DHT22;27136;53.810;8.886;2022-08-11T11:11:50;25.50;99.90
41395;DHT22;27136;53.810;8.886;2022-08-11T11:14:37;25.50;99.90
41395;DHT22;27136;53.810;8.886;2022-08-11T11:17:34;25.50;99.90
41395;DHT22;27136;53.810;8.886;2022-08-11T11:20:24;25.60;99.90
41395;DHT22;27136;53.810;8.886;2022-08-11T11:22:53;25.60;99.90
41395;DHT22;27136;53.810;8.886;2022-08-11T11:31:38;25.90;99.90
41395;DHT22;27136;53.810;8.886;2022-08-11T11:36:49;25.90;99.90
41395;DHT22;27136;53.810;8.886;2022-08-11T11:39:20;26.00;99.90
41395;DHT22;27136;53.810;8.886;2022-08-11T11:41:49;26.10;99.90
41395;DHT22;27136;53.810;8.886;2022-08-11T11:44:15;26.20;99.90
41395;DHT22;27136;53.810;8.886;2022-08-11T11:46:42;26.30;99.90
41395;DHT22;27136;53.810;8.886;2022-08-11T11:49:10;26.40;99.90
41395;DHT22;27136;53.810;8.886;2022-08-11T11:51:37;26.60;99.90
41395;DHT22;27136;53.810;8.886;2022-08-11T11:54:03;26.70;99.90
41395;DHT22;27136;53.810;8.886;2022-08-11T11:56:29;26.70;99.90
41395;DHT22;27136;53.810;8.886;2022-08-11T11:58:55;26.80;99.60
41395;DHT22;27136;53.810;8.886;2022-08-11T12:01:41;26.80;99.40
41395;DHT22;27136;53.810;8.886;2022-08-11T12:04:08;26.90;99.30
41395;DHT22;27136;53.810;8.886;2022-08-11T12:06:39;26.90;99.90
41395;DHT22;27136;53.810;8.886;2022-08-11T12:09:05;27.00;99.90
41395;DHT22;27136;53.810;8.886;2022-08-11T12:11:32;27.00;99.90
41395;DHT22;27136;53.810;8.886;2022-08-11T12:14:18;26.90;99.90
41395;DHT22;27136;53.810;8.886;2022-08-11T12:16:46;27.10;99.90
41395;DHT22;27136;53.810;8.886;2022-08-11T12:19:22;27.20;99.90
41395;DHT22;27136;53.810;8.886;2022-08-11T12:21:49;27.40;99.90
41395;DHT22;27136;53.810;8.886;2022-08-11T12:24:34;27.40;99.90
41395;DHT22;27136;53.810;8.886;2022-08-11T12:27:20;27.40;99.90
41395;DHT22;27136;53.810;8.886;2022-08-11T12:29:55;27.40;99.90
41395;DHT22;27136;53.810;8.886;2022-08-11T12:32:23;27.40;99.90
41395;DHT22;27136;53.810;8.886;2022-08-11T12:34:50;27.60;99.90
41395;DHT22;27136;53.810;8.886;2022-08-11T12:37:22;27.70;99.90
41395;DHT22;27136;53.810;8.886;2022-08-11T12:39:50;27.70;99.80
41395;DHT22;27136;53.810;8.886;2022-08-11T12:42:36;27.80;99.90
41395;DHT22;27136;53.810;8.886;2022-08-11T12:45:25;28.10;99.90
41395;DHT22;27136;53.810;8.886;2022-08-11T12:48:09;28.10;99.10
41395;DHT22;27136;53.810;8.886;2022-08-11T12:51:06;28.10;99.90
41395;DHT22;27136;53.810;8.886;2022-08-11T12:54:01;28.10;98.30
41395;DHT22;27136;53.810;8.886;2022-08-11T12:56:37;28.20;99.90
41395;DHT22;27136;53.810;8.886;2022-08-11T12:59:23;28.30;99.90
41395;DHT22;27136;53.810;8.886;2022-08-11T13:02:11;28.50;99.80
41395;DHT22;27136;53.810;8.886;2022-08-11T13:04:58;28.50;99.20
41395;DHT22;27136;53.810;8.886;2022-08-11T13:07:27;28.60;99.90
41395;DHT22;27136;53.810;8.886;2022-08-11T13:09:55;28.70;99.60
41395;DHT22;27136;53.810;8.886;2022-08-11T13:12:24;28.80;99.40
41395;DHT22;27136;53.810;8.886;2022-08-11T13:15:18;28.90;97.70
41395;DHT22;27136;53.810;8.886;2022-08-11T13:17:45;28.90;99.90
41395;DHT22;27136;53.810;8.886;2022-08-11T13:20:15;29.00;98.60
41395;DHT22;27136;53.810;8.886;2022-08-11T13:22:41;29.00;99.10
41395;DHT22;27136;53.810;8.886;2022-08-11T13:25:12;29.10;99.40
41395;DHT22;27136;53.810;8.886;2022-08-11T13:27:40;29.30;98.50
41395;DHT22;27136;53.810;8.886;2022-08-11T13:30:07;29.30;97.90
41395;DHT22;27136;53.810;8.886;2022-08-11T13:32:51;29.20;99.10
41395;DHT22;27136;53.810;8.886;2022-08-11T13:35:17;29.20;99.90
41395;DHT22;27136;53.810;8.886;2022-08-11T13:37:45;29.00;99.90
41395;DHT22;27136;53.810;8.886;2022-08-11T13:40:13;29.00;99.90
41395;DHT22;27136;53.810;8.886;2022-08-11T13:42:40;29.00;99.90
41395;DHT22;27136;53.810;8.886;2022-08-11T13:45:07;28.90;99.90
41395;DHT22;27136;53.810;8.886;2022-08-11T13:47:33;28.80;99.90
41395;DHT22;27136;53.810;8.886;2022-08-11T13:49:59;29.00;99.90
41395;DHT22;27136;53.810;8.886;2022-08-11T13:52:26;29.10;99.70
41395;DHT22;27136;53.810;8.886;2022-08-11T13:54:53;29.00;99.90
41395;DHT22;27136;53.810;8.886;2022-08-11T13:57:19;29.30;99.90
41395;DHT22;27136;53.810;8.886;2022-08-11T13:59:51;29.40;99.90
41395;DHT22;27136;53.810;8.886;2022-08-11T14:02:23;29.50;98.60
41395;DHT22;27136;53.810;8.886;2022-08-11T14:05:02;29.40;98.10
41395;DHT22;27136;53.810;8.886;2022-08-11T14:07:45;29.60;99.10
41395;DHT22;27136;53.810;8.886;2022-08-11T14:10:12;29.70;99.00
41395;DHT22;27136;53.810;8.886;2022-08-11T14:12:40;29.80;99.60
41395;DHT22;27136;53.810;8.886;2022-08-11T14:15:33;29.90;99.90
41395;DHT22;27136;53.810;8.886;2022-08-11T14:18:25;29.90;99.10
41395;DHT22;27136;53.810;8.886;2022-08-11T14:20:56;29.70;97.60
41395;DHT22;27136;53.810;8.886;2022-08-11T14:23:43;29.60;98.30
41395;DHT22;27136;53.810;8.886;2022-08-11T14:26:11;29.70;99.10
41395;DHT22;27136;53.810;8.886;2022-08-11T14:29:16;29.80;98.60
41395;DHT22;27136;53.810;8.886;2022-08-11T14:31:47;29.90;99.00
41395;DHT22;27136;53.810;8.886;2022-08-11T14:34:14;30.00;99.50
41395;DHT22;27136;53.810;8.886;2022-08-11T14:36:43;30.00;98.80
41395;DHT22;27136;53.810;8.886;2022-08-11T14:39:33;29.80;98.70
41395;DHT22;27136;53.810;8.886;2022-08-11T14:42:03;29.90;98.60
41395;DHT22;27136;53.810;8.886;2022-08-11T14:45:11;30.00;98.40
41395;DHT22;27136;53.810;8.886;2022-08-11T14:47:59;29.80;98.40
41395;DHT22;27136;53.810;8.886;2022-08-11T14:50:28;29.90;99.10
41395;DHT22;27136;53.810;8.886;2022-08-11T14:52:57;30.00;99.20
41395;DHT22;27136;53.810;8.886;2022-08-11T14:55:25;30.00;99.00
41395;DHT22;27136;53.810;8.886;2022-08-11T14:58:12;30.20;99.20
41395;DHT22;27136;53.810;8.886;2022-08-11T15:00:40;30.20;97.20
41395;DHT22;27136;53.810;8.886;2022-08-11T15:03:07;30.10;98.20
41395;DHT22;27136;53.810;8.886;2022-08-11T15:05:35;30.20;97.20
41395;DHT22;27136;53.810;8.886;2022-08-11T15:08:01;30.20;97.80
41395;DHT22;27136;53.810;8.886;2022-08-11T15:10:27;30.10;98.20
41395;DHT22;27136;53.810;8.886;2022-08-11T15:12:53;30.10;98.30
41395;DHT22;27136;53.810;8.886;2022-08-11T15:15:19;30.10;97.70
41395;DHT22;27136;53.810;8.886;2022-08-11T15:18:06;29.90;98.00
41395;DHT22;27136;53.810;8.886;2022-08-11T15:20:34;30.00;98.40
41395;DHT22;27136;53.810;8.886;2022-08-11T15:23:18;30.10;97.30
41395;DHT22;27136;53.810;8.886;2022-08-11T15:26:06;30.10;98.90
41395;DHT22;27136;53.810;8.886;2022-08-11T15:28:41;30.10;98.40
41395;DHT22;27136;53.810;8.886;2022-08-11T15:31:28;30.20;98.50
41395;DHT22;27136;53.810;8.886;2022-08-11T15:34:16;30.20;97.60
41395;DHT22;27136;53.810;8.886;2022-08-11T15:37:12;30.10;97.90
41395;DHT22;27136;53.810;8.886;2022-08-11T15:39:57;30.00;97.30
41395;DHT22;27136;53.810;8.886;2022-08-11T15:43:22;30.20;99.00
41395;DHT22;27136;53.810;8.886;2022-08-11T15:46:18;30.30;98.70
41395;DHT22;27136;53.810;8.886;2022-08-11T15:48:47;30.30;97.80
41395;DHT22;27136;53.810;8.886;2022-08-11T15:51:32;30.30;98.50
41395;DHT22;27136;53.810;8.886;2022-08-11T15:54:22;30.00;98.30
41395;DHT22;27136;53.810;8.886;2022-08-11T15:56:52;30.00;98.40
41395;DHT22;27136;53.810;8.886;2022-08-11T15:59:20;30.00;98.90
41395;DHT22;27136;53.810;8.886;2022-08-11T16:02:07;29.90;98.80
41395;DHT22;27136;53.810;8.886;2022-08-11T16:04:53;29.80;99.00
41395;DHT22;27136;53.810;8.886;2022-08-11T16:07:22;29.50;99.30
41395;DHT22;27136;53.810;8.886;2022-08-11T16:12:36;29.20;99.40
41395;DHT22;27136;53.810;8.886;2022-08-11T16:15:05;29.30;99.40
41395;DHT22;27136;53.810;8.886;2022-08-11T16:17:52;29.20;99.50
41395;DHT22;27136;53.810;8.886;2022-08-11T16:20:23;29.20;99.00
41395;DHT22;27136;53.810;8.886;2022-08-11T16:22:53;29.00;99.00
41395;DHT22;27136;53.810;8.886;2022-08-11T16:25:22;28.70;99.30
41395;DHT22;27136;53.810;8.886;2022-08-11T16:27:55;28.50;99.70
41395;DHT22;27136;53.810;8.886;2022-08-11T16:30:35;28.70;99.80
41395;DHT22;27136;53.810;8.886;2022-08-11T16:33:02;28.70;99.90
41395;DHT22;27136;53.810;8.886;2022-08-11T16:35:33;28.80;99.90
41395;DHT22;27136;53.810;8.886;2022-08-11T16:38:19;28.80;99.90
41395;DHT22;27136;53.810;8.886;2022-08-11T16:41:02;28.80;99.90
41395;DHT22;27136;53.810;8.886;2022-08-11T16:43:31;28.80;99.90
41395;DHT22;27136;53.810;8.886;2022-08-11T16:46:18;28.80;99.90
41395;DHT22;27136;53.810;8.886;2022-08-11T16:49:09;28.90;99.90
41395;DHT22;27136;53.810;8.886;2022-08-11T16:51:36;28.90;99.90
41395;DHT22;27136;53.810;8.886;2022-08-11T16:54:02;28.80;99.90
41395;DHT22;27136;53.810;8.886;2022-08-11T16:56:44;28.80;99.90
41395;DHT22;27136;53.810;8.886;2022-08-11T16:59:31;28.70;99.90
41395;DHT22;27136;53.810;8.886;2022-08-11T17:02:06;28.60;99.90
41395;DHT22;27136;53.810;8.886;2022-08-11T17:04:51;28.50;99.90
41395;DHT22;27136;53.810;8.886;2022-08-11T17:07:37;28.40;99.90
41395;DHT22;27136;53.810;8.886;2022-08-11T17:10:27;28.40;99.90
41395;DHT22;27136;53.810;8.886;2022-08-11T17:13:13;28.40;99.90
41395;DHT22;27136;53.810;8.886;2022-08-11T17:15:40;28.30;99.90
41395;DHT22;27136;53.810;8.886;2022-08-11T17:18:28;28.20;99.90
41395;DHT22;27136;53.810;8.886;2022-08-11T17:21:24;28.20;99.90
41395;DHT22;27136;53.810;8.886;2022-08-11T17:23:57;28.10;99.90
41395;DHT22;27136;53.810;8.886;2022-08-11T17:26:53;28.00;99.90
41395;DHT22;27136;53.810;8.886;2022-08-11T17:29:27;27.90;99.90
41395;DHT22;27136;53.810;8.886;2022-08-11T17:31:54;27.90;99.90
41395;DHT22;27136;53.810;8.886;2022-08-11T17:34:42;27.90;99.90
41395;DHT22;27136;53.810;8.886;2022-08-11T17:37:27;27.80;99.90
41395;DHT22;27136;53.810;8.886;2022-08-11T17:39:56;27.80;99.90
41395;DHT22;27136;53.810;8.886;2022-08-11T17:42:23;27.60;99.90
41395;DHT22;27136;53.810;8.886;2022-08-11T17:45:10;27.50;99.90
41395;DHT22;27136;53.810;8.886;2022-08-11T17:47:55;27.50;99.90
41395;DHT22;27136;53.810;8.886;2022-08-11T17:50:40;27.50;99.90
41395;DHT22;27136;53.810;8.886;2022-08-11T17:53:06;27.40;99.90
41395;DHT22;27136;53.810;8.886;2022-08-11T17:55:58;27.20;99.90
41395;DHT22;27136;53.810;8.886;2022-08-11T17:59:03;27.20;99.90
41395;DHT22;27136;53.810;8.886;2022-08-11T18:01:48;27.10;99.90
41395;DHT22;27136;53.810;8.886;2022-08-11T18:04:16;27.00;99.90
41395;DHT22;27136;53.810;8.886;2022-08-11T18:06:43;27.00;99.90
41395;DHT22;27136;53.810;8.886;2022-08-11T18:09:14;26.90;99.90
41395;DHT22;27136;53.810;8.886;2022-08-11T18:12:03;26.90;99.90
41395;DHT22;27136;53.810;8.886;2022-08-11T18:14:50;26.80;99.90
41395;DHT22;27136;53.810;8.886;2022-08-11T19:37:46;25.00;99.90
41395;DHT22;27136;53.810;8.886;2022-08-11T19:40:30;24.90;99.90
41395;DHT22;27136;53.810;8.886;2022-08-11T19:43:18;24.80;99.90
41395;DHT22;27136;53.810;8.886;2022-08-11T19:46:04;24.80;99.90
41395;DHT22;27136;53.810;8.886;2022-08-11T19:48:53;24.70;99.90
41395;DHT22;27136;53.810;8.886;2022-08-11T19:51:39;24.70;99.90
41395;DHT22;27136;53.810;8.886;2022-08-11T19:54:26;24.60;99.90
41395;DHT22;27136;53.810;8.886;2022-08-11T19:57:12;24.60;99.90
41395;DHT22;27136;53.810;8.886;2022-08-11T19:59:57;24.50;99.90
41395;DHT22;27136;53.810;8.886;2022-08-11T20:02:43;24.50;99.90
41395;DHT22;27136;53.810;8.886;2022-08-11T20:05:29;24.50;99.90
41395;DHT22;27136;53.810;8.886;2022-08-11T20:08:16;24.40;99.90
41395;DHT22;27136;53.810;8.886;2022-08-11T20:11:01;24.40;99.90
41395;DHT22;27136;53.810;8.886;2022-08-11T20:13:46;24.30;99.90
41395;DHT22;27136;53.810;8.886;2022-08-11T20:16:31;24.20;99.90
41395;DHT22;27136;53.810;8.886;2022-08-11T20:19:18;24.20;99.90
41395;DHT22;27136;53.810;8.886;2022-08-11T20:22:03;24.10;99.90
41395;DHT22;27136;53.810;8.886;2022-08-11T20:24:49;24.10;99.90
41395;DHT22;27136;53.810;8.886;2022-08-11T20:27:34;24.00;99.90
41395;DHT22;27136;53.810;8.886;2022-08-11T20:30:21;24.00;99.90
41395;DHT22;27136;53.810;8.886;2022-08-11T20:33:07;23.90;99.90
41395;DHT22;27136;53.810;8.886;2022-08-11T20:35:52;23.90;99.90
41395;DHT22;27136;53.810;8.886;2022-08-11T20:38:37;23.80;99.90
41395;DHT22;27136;53.810;8.886;2022-08-11T20:41:22;23.80;99.90
41395;DHT22;27136;53.810;8.886;2022-08-11T20:44:07;23.70;99.90